EW4048 Weather Reports


Display with metric or nautical units.
time (UTC)temp
F
wind
direction
speed
MPH
gust
MPH
rain 1hr
in
rain 24hr
in
rain mn
in
humidity
%
barometer
mb
20210923090042 57 217 0.0 0.0 0.00 0.00 0.00 91 1020.3
20210923084602 57 217 0.0 0.0 0.00 0.00 0.00 91 1020.3
20210923083037 58 217 0.0 0.0 0.00 0.00 0.00 90 1020.3
20210923081531 58 217 0.0 0.0 0.00 0.00 0.00 90 1020.4
20210923080038 59 217 0.0 0.0 0.00 0.00 0.00 90 1020.6
20210923074553 59 217 0.0 0.0 0.00 0.00 0.00 89 1020.5
20210923073012 60 217 0.0 0.0 0.00 0.00 0.00 88 1020.5
20210923071510 60 253 0.0 0.0 0.00 0.00 0.00 87 1020.6
20210923070017 60 248 0.0 0.0 0.00 0.00 0.00 86 1020.6
20210923064514 61 257 0.0 0.0 0.00 0.00 0.00 86 1020.6
20210923063008 61 228 0.0 0.0 0.00 0.00 0.00 86 1020.5
20210923061506 61 226 0.0 0.0 0.00 0.00 0.00 86 1020.5
20210923060006 61 221 0.0 0.0 0.00 0.00 0.00 85 1020.6
20210923054507 62 188 0.0 0.0 0.00 0.00 0.00 84 1020.6
20210923053001 62 227 0.0 0.0 0.00 0.00 0.00 84 1020.6
20210923051628 62 222 0.0 0.0 0.00 0.00 0.00 84 1020.7
20210923050052 62 215 0.0 0.0 0.00 0.00 0.00 83 1020.6
20210923044654 62 209 0.0 0.0 0.00 0.00 0.00 84 1020.7
20210923043123 62 199 0.0 0.0 0.00 0.00 0.00 85 1020.8
20210923041612 62 238 0.0 0.0 0.00 0.00 0.00 85 1020.6
20210923040134 62 221 0.0 0.0 0.00 0.00 0.00 85 1020.5
20210923034551 63 230 0.0 0.0 0.00 0.00 0.00 85 1020.4
20210923033117 63 223 0.0 0.0 0.00 0.00 0.00 85 1020.5
20210923031617 63 217 0.0 0.0 0.00 0.00 0.00 85 1020.4
20210923030041 64 228 0.0 0.0 0.00 0.00 0.00 85 1020.5
20210923024544 64 223 0.0 0.0 0.00 0.00 0.00 84 1020.5
20210923023027 65 209 0.0 0.0 0.00 0.00 0.00 83 1020.4
20210923021519 65 209 0.0 0.0 0.00 0.00 0.00 83 1020.4
20210923020019 66 214 0.0 0.0 0.00 0.00 0.00 81 1020.3
20210923014520 66 220 0.0 0.0 0.00 0.00 0.00 80 1020.2
20210923013054 67 218 0.0 0.0 0.00 0.00 0.00 79 1020.0
20210923011755 68 219 0.0 0.0 0.00 0.00 0.00 79 1019.8
20210923010114 68 199 0.0 0.0 0.00 0.00 0.00 78 1019.4
20210923004634 68 220 0.0 0.0 0.00 0.00 0.00 77 1019.2
20210923003052 69 217 0.0 0.0 0.00 0.00 0.00 77 1019.0
20210923001616 70 209 0.0 0.0 0.00 0.00 0.00 77 1018.7
20210923000128 70 149 0.0 0.0 0.00 0.00 0.00 77 1018.4
20210922234706 71 213 0.0 0.0 0.00 0.00 0.00 77 1018.4
20210922233135 72 169 0.0 0.0 0.00 0.00 0.00 76 1018.2
20210922231613 73 174 0.0 0.0 0.00 0.00 0.00 75 1018.1
20210922230107 74 182 0.0 8.0 0.00 0.00 0.00 73 1018.1
20210922224633 74 161 1.0 12.0 0.00 0.00 0.00 70 1018.0
20210922223039 75 191 0.0 0.0 0.00 0.00 0.00 71 1018.1
20210922221530 77 147 0.0 0.0 0.00 0.00 0.00 68 1018.0
20210922220057 77 153 0.0 0.0 0.00 0.00 0.00 69 1017.7
20210922214537 79 137 0.0 8.0 0.00 0.00 0.00 65 1017.7
20210922213028 80 143 0.0 11.0 0.00 0.00 0.00 64 1017.5
20210922211510 81 170 0.0 11.0 0.00 0.00 0.00 63 1017.4
20210922210026 81 229 0.0 0.0 0.00 0.00 0.00 67 1017.3
20210922204600 80 290 0.0 0.0 0.00 0.00 0.00 68 1017.4
20210922203135 81 140 0.0 8.0 0.00 0.00 0.00 67 1017.3
20210922201556 82 176 0.0 0.0 0.00 0.00 0.00 69 1017.4
20210922200103 83 195 0.0 0.0 0.00 0.00 0.00 66 1017.3
20210922194524 82 196 0.0 0.0 0.00 0.00 0.00 68 1017.3
20210922193025 83 211 0.0 0.0 0.00 0.00 0.00 69 1017.4
20210922191630 80 242 0.0 0.0 0.00 0.00 0.00 74 1017.6
20210922190152 81 166 0.0 0.0 0.00 0.00 0.00 76 1017.8
20210922184630 81 109 0.0 0.0 0.00 0.00 0.00 78 1018.1
20210922183121 81 157 0.0 0.0 0.00 0.00 0.00 77 1018.3
20210922181639 83 109 0.0 0.0 0.00 0.00 0.00 73 1018.2
20210922180107 82 147 0.0 0.0 0.00 0.00 0.00 75 1018.5
20210922174624 81 189 0.0 0.0 0.00 0.00 0.00 77 1018.6
20210922173121 81 187 0.0 0.0 0.00 0.00 0.00 75 1018.9
20210922171607 82 147 0.0 0.0 0.00 0.00 0.00 77 1018.9
20210922170031 81 258 0.0 0.0 0.00 0.00 0.00 78 1018.9
20210922164525 78 225 0.0 0.0 0.00 0.00 0.00 84 1019.4
20210922163017 78 216 0.0 0.0 0.00 0.00 0.00 83 1019.5
20210922161519 78 209 0.0 0.0 0.00 0.00 0.00 83 1019.5
20210922160036 76 167 0.0 0.0 0.00 0.00 0.00 91 1019.5
20210922154510 75 169 0.0 0.0 0.00 0.00 0.00 92 1019.7
20210922153004 75 212 0.0 0.0 0.00 0.00 0.00 91 1019.8
20210922151503 75 238 0.0 0.0 0.00 0.00 0.00 91 1019.8
20210922150003 75 173 0.0 0.0 0.00 0.00 0.00 90 1019.7
20210922144627 76 186 0.0 0.0 0.00 0.00 0.00 88 1019.5
20210922143102 76 218 0.0 0.0 0.00 0.00 0.00 89 1019.4
20210922141622 75 243 0.0 0.0 0.00 0.00 0.00 91 1019.3
20210922140059 75 180 0.0 0.0 0.00 0.00 0.00 92 1019.2
20210922134641 74 177 0.0 0.0 0.00 0.00 0.00 93 1019.1
20210922133139 74 171 0.0 0.0 0.00 0.00 0.00 94 1019.1
20210922131557 73 181 0.0 0.0 0.00 0.00 0.00 94 1019.2
20210922130120 73 217 0.0 0.0 0.00 0.00 0.00 94 1018.9
20210922124602 73 237 0.0 0.0 0.00 0.00 0.00 95 1019.0
20210922123035 73 231 0.0 0.0 0.00 0.00 0.00 95 1018.8
20210922121655 72 209 0.0 0.0 0.00 0.00 0.00 95 1018.8
20210922120036 72 178 0.0 0.0 0.00 0.00 0.00 95 1018.6
20210922114559 72 232 0.0 0.0 0.00 0.00 0.00 95 1018.6
20210922113029 72 232 0.0 0.0 0.00 0.00 0.00 95 1018.6
20210922111528 72 232 0.0 0.0 0.00 0.00 0.00 95 1018.4
20210922110045 72 210 0.0 0.0 0.00 0.00 0.00 95 1018.1
20210922104515 73 203 0.0 0.0 0.00 0.00 0.00 95 1018.1
20210922103018 73 168 0.0 0.0 0.00 0.00 0.00 95 1018.1
20210922101605 73 219 0.0 0.0 0.00 0.00 0.00 95 1018.1
20210922100053 73 201 0.0 0.0 0.00 0.00 0.00 94 1018.1
20210922094525 73 201 0.0 0.0 0.00 0.00 0.00 94 1017.9
20210922093021 73 201 0.0 0.0 0.00 0.00 0.00 94 1017.9
20210922091520 73 201 0.0 0.0 0.00 0.00 0.00 94 1017.8